Time;durP1;ratioP1;P1;durP2;ratioP2;P2;SDS_P1;SDS_P2;PMS_P1;PMS_P2;Temp;Humidity;BMP_temperature;BMP_pressure;BME280_temperature;BME280_humidity;BME280_pressure;Samples;Min_cycle;Max_cycle;Signal;HPM_P1;HPM_P2
2022/07/18 00:01:07;;;;;;;2.42;0.77;;;;;;;15.88;62.54;101510.75;5069753;28;20043;-70
2022/07/18 00:04:10;;;;;;;2.47;0.82;;;;;;;15.91;62.16;101508.78;5069843;28;20133;-70
2022/07/18 00:07:13;;;;;;;5.10;1.23;;;;;;;15.85;62.15;101509.13;5069466;28;20051;-70
2022/07/18 00:10:17;;;;;;;3.00;1.00;;;;;;;15.74;62.97;101522.13;5069440;28;20043;-70
2022/07/18 00:13:22;;;;;;;4.35;0.88;;;;;;;15.63;62.65;101511.28;5069536;28;20048;-70
2022/07/18 00:16:25;;;;;;;3.42;1.10;;;;;;;15.51;62.58;101518.16;5068683;28;20167;-70
2022/07/18 00:19:29;;;;;;;3.05;0.75;;;;;;;15.58;63.03;101519.50;5068462;28;20111;-70
2022/07/18 00:22:32;;;;;;;4.47;0.80;;;;;;;15.44;64.10;101522.88;5068736;28;20109;-70
2022/07/18 00:25:36;;;;;;;3.53;0.80;;;;;;;15.23;64.36;101518.84;5068547;28;20044;-70
2022/07/18 00:28:39;;;;;;;5.15;1.20;;;;;;;15.33;63.80;101514.75;5048669;28;20080;-70
2022/07/18 00:31:43;;;;;;;6.72;2.25;;;;;;;15.16;63.98;101512.22;5049558;28;20102;-69
2022/07/18 00:34:46;;;;;;;3.90;0.82;;;;;;;15.10;64.28;101519.53;5049285;28;20130;-70
2022/07/18 00:37:49;;;;;;;3.67;0.98;;;;;;;15.04;64.94;101525.13;5048237;28;20064;-70
2022/07/18 00:40:53;;;;;;;7.93;1.08;;;;;;;15.28;64.52;101515.03;5051629;28;20493;-70
2022/07/18 00:44:17;;;;;;;2.63;0.80;;;;;;;15.22;64.79;101514.50;5068184;28;20669;-70
2022/07/18 00:47:21;;;;;;;2.67;0.80;;;;;;;15.23;64.86;101508.31;5069727;28;20051;-70
2022/07/18 00:50:25;;;;;;;3.53;0.90;;;;;;;15.01;65.29;101513.91;5056835;28;20551;-70
2022/07/18 00:53:29;;;;;;;5.22;1.27;;;;;;;14.86;65.45;101518.22;5068386;28;20047;-70
2022/07/18 00:56:33;;;;;;;3.70;0.70;;;;;;;14.77;65.92;101518.72;5068042;28;20051;-70
2022/07/18 01:02:58;;;;;;;4.00;0.98;;;;;;;14.80;66.15;101516.78;5068341;28;20415;-70
2022/07/18 01:06:02;;;;;;;3.00;0.70;;;;;;;14.85;65.91;101514.75;5068590;28;20048;-69
2022/07/18 01:09:06;;;;;;;2.88;0.90;;;;;;;14.90;65.89;101519.78;5068244;28;20046;-69
2022/07/18 01:17:16;;;;;;;3.40;0.90;;;;;;;14.64;66.71;101522.03;5063653;28;20048;-70
2022/07/18 01:20:19;;;;;;;4.50;0.60;;;;;;;14.74;66.05;101517.13;5068850;28;20135;-70
2022/07/18 01:23:23;;;;;;;3.65;1.00;;;;;;;14.58;66.84;101521.50;5067562;28;20067;-70
2022/07/18 01:26:28;;;;;;;6.40;0.80;;;;;;;14.58;67.20;101524.13;5068359;28;20143;-70
2022/07/18 01:29:31;;;;;;;3.42;0.90;;;;;;;14.56;67.11;101526.84;5068614;28;20124;-70
2022/07/18 01:32:35;;;;;;;5.45;1.17;;;;;;;14.50;67.28;101521.03;5068505;28;20093;-70
2022/07/18 01:35:38;;;;;;;4.65;1.33;;;;;;;14.42;67.69;101522.28;5068909;28;20094;-70
2022/07/18 01:38:42;;;;;;;2.92;0.75;;;;;;;14.41;67.68;101525.84;5068071;28;20504;-70
2022/07/18 01:41:45;;;;;;;3.13;0.90;;;;;;;14.21;68.37;101523.41;5068090;28;20040;-70
2022/07/18 01:44:48;;;;;;;5.57;0.90;;;;;;;14.24;68.57;101523.25;5055634;28;20051;-71
2022/07/18 01:47:52;;;;;;;2.33;0.60;;;;;;;14.28;68.66;101518.66;5068021;28;20143;-70
2022/07/18 01:50:55;;;;;;;2.53;0.80;;;;;;;14.18;68.61;101513.88;5068337;28;20040;-71
2022/07/18 01:54:01;;;;;;;4.63;1.10;;;;;;;14.12;68.47;101516.81;5067973;28;20050;-70
2022/07/18 01:57:07;;;;;;;6.07;1.40;;;;;;;14.07;68.82;101521.50;5070664;28;20413;-70
2022/07/18 02:00:11;;;;;;;6.65;1.40;;;;;;;14.13;69.02;101509.78;5059751;28;20059;-71
2022/07/18 02:03:14;;;;;;;6.07;0.98;;;;;;;14.12;68.98;101514.19;5071587;28;20097;-70
2022/07/18 02:06:18;;;;;;;5.53;1.30;;;;;;;14.09;68.61;101514.34;5071794;28;20082;-70
2022/07/18 02:09:21;;;;;;;4.43;0.95;;;;;;;14.04;68.75;101511.13;5071580;28;20472;-72
2022/07/18 02:12:25;;;;;;;3.13;0.77;;;;;;;14.04;68.91;101507.63;5072189;28;20528;-72
2022/07/18 02:15:28;;;;;;;7.05;1.13;;;;;;;13.89;69.28;101504.00;5060077;28;20103;-71
2022/07/18 02:18:32;;;;;;;4.40;1.02;;;;;;;13.82;69.73;101500.00;5072413;28;20612;-70
2022/07/18 02:21:35;;;;;;;5.55;0.98;;;;;;;13.81;69.84;101503.53;5071145;28;20089;-70
2022/07/18 02:24:39;;;;;;;6.30;1.45;;;;;;;13.81;69.49;101498.28;5071937;28;20459;-71
2022/07/18 02:27:42;;;;;;;3.13;0.90;;;;;;;13.68;70.15;101498.03;5070623;28;20048;-71
2022/07/18 02:30:48;;;;;;;3.03;0.65;;;;;;;13.76;70.05;101495.03;5072222;28;20459;-70
2022/07/18 02:33:51;;;;;;;3.10;0.80;;;;;;;13.71;69.99;101496.09;5071559;28;20075;-70
2022/07/18 02:36:54;;;;;;;2.65;0.82;;;;;;;13.66;70.10;101499.91;5070524;28;20410;-70
2022/07/18 02:39:58;;;;;;;3.45;0.60;;;;;;;13.63;70.48;101506.16;5071035;28;20174;-70
2022/07/18 02:43:02;;;;;;;3.42;1.33;;;;;;;13.60;70.64;101498.44;5070854;28;20159;-70
2022/07/18 02:46:05;;;;;;;3.72;1.02;;;;;;;13.66;70.40;101489.41;5070524;28;20105;-70
2022/07/18 02:49:09;;;;;;;3.95;1.17;;;;;;;13.63;70.37;101500.91;5070690;28;20052;-70
2022/07/18 02:52:12;;;;;;;2.20;0.70;;;;;;;13.47;70.81;101503.44;5071223;28;20089;-70
2022/07/18 02:55:16;;;;;;;2.20;0.75;;;;;;;13.38;70.87;101500.41;5070838;28;20694;-70
2022/07/18 02:58:19;;;;;;;3.03;0.93;;;;;;;13.34;71.46;101498.88;5071027;28;20052;-70
2022/07/18 03:01:22;;;;;;;4.28;0.95;;;;;;;13.41;71.16;101500.25;5070604;28;20127;-70
2022/07/18 03:04:26;;;;;;;3.83;1.10;;;;;;;13.42;71.06;101497.53;5069735;28;20516;-71
2022/07/18 03:07:31;;;;;;;3.22;0.82;;;;;;;13.36;70.95;101494.38;5057385;28;20055;-70
2022/07/18 03:10:34;;;;;;;5.78;1.08;;;;;;;13.40;71.13;101499.41;5070861;28;20460;-70
2022/07/18 03:13:37;;;;;;;5.80;0.85;;;;;;;13.24;71.95;101508.88;5070998;28;20051;-71
2022/07/18 03:16:41;;;;;;;3.33;1.15;;;;;;;13.17;72.31;101508.34;5070400;28;20074;-70
2022/07/18 03:19:44;;;;;;;2.88;0.88;;;;;;;13.15;72.47;101510.22;5070301;28;20051;-70
2022/07/18 03:22:47;;;;;;;2.67;0.90;;;;;;;13.10;72.64;101506.94;5070441;28;20052;-70
2022/07/18 03:25:50;;;;;;;;;;;;;;;13.14;72.34;101503.22;5070649;28;20483;-70
2022/07/18 03:28:53;;;;;;;4.82;1.08;;;;;;;13.17;72.13;101513.59;5070831;28;19986;-70
2022/07/18 03:31:57;;;;;;;4.97;1.00;;;;;;;13.26;71.88;101502.69;5071144;28;20123;-70
2022/07/18 03:35:00;;;;;;;3.33;0.88;;;;;;;13.19;71.88;101500.41;5050307;28;20044;-70
2022/07/18 03:38:04;;;;;;;2.75;0.90;;;;;;;13.17;71.91;101500.47;5049540;28;20040;-70
2022/07/18 03:41:07;;;;;;;5.25;0.98;;;;;;;12.91;72.75;101511.34;5050099;28;20102;-71
2022/07/18 03:44:11;;;;;;;3.55;0.80;;;;;;;12.93;72.38;101512.13;5050271;28;20571;-70
2022/07/18 03:47:14;;;;;;;4.47;0.80;;;;;;;12.91;72.68;101506.94;5050045;28;20071;-72
2022/07/18 03:50:17;;;;;;;4.05;1.13;;;;;;;12.89;72.39;101516.69;5050365;28;20147;-70
2022/07/18 03:53:21;;;;;;;4.15;0.82;;;;;;;12.88;72.50;101524.59;5049914;28;20048;-70
2022/07/18 03:56:24;;;;;;;2.40;0.98;;;;;;;12.97;72.28;101522.41;5050062;28;20082;-70
2022/07/18 03:59:28;;;;;;;3.08;1.05;;;;;;;12.96;72.30;101510.22;5049915;28;20051;-71
2022/07/18 04:02:31;;;;;;;4.90;0.82;;;;;;;13.01;72.30;101518.72;5062816;28;20047;-71
2022/07/18 04:05:35;;;;;;;2.40;0.85;;;;;;;12.99;72.18;101524.97;5054237;28;20040;-69
2022/07/18 04:08:38;;;;;;;;;;;;;;;12.88;72.90;101522.81;5050623;28;20132;-72
2022/07/18 04:11:41;;;;;;;2.35;0.82;;;;;;;12.97;72.47;101522.41;5049515;28;20297;-70
2022/07/18 04:14:44;;;;;;;4.47;1.20;;;;;;;12.97;72.84;101527.66;5049841;28;20876;-71
2022/07/18 04:17:48;;;;;;;4.10;0.88;;;;;;;12.86;73.28;101529.06;5069122;28;20094;-69
2022/07/18 04:20:51;;;;;;;3.33;1.00;;;;;;;12.79;73.68;101528.50;5069229;28;20165;-72
2022/07/18 04:23:55;;;;;;;2.92;0.90;;;;;;;12.89;73.49;101534.16;5066729;28;20521;-74
2022/07/18 04:26:59;;;;;;;3.35;1.08;;;;;;;12.91;73.29;101533.19;5049386;28;20051;-73
2022/07/18 04:30:03;;;;;;;2.22;0.80;;;;;;;12.89;73.18;101534.16;5056460;28;20055;-70
2022/07/18 04:33:27;;;;;;;3.13;0.65;;;;;;;13.01;72.88;101531.84;5069395;28;20071;-72
2022/07/18 04:36:30;;;;;;;;;;;;;;;12.89;73.58;101529.81;5070258;28;20043;-71
2022/07/18 04:39:33;;;;;;;6.80;1.08;;;;;;;13.11;72.98;101532.25;5069658;28;20369;-71
2022/07/18 04:42:36;;;;;;;3.78;1.00;;;;;;;13.12;72.70;101531.34;5069025;28;20074;-72
2022/07/18 04:45:39;;;;;;;5.30;1.08;;;;;;;13.16;72.59;101532.06;5067881;28;20604;-71
2022/07/18 04:48:43;;;;;;;5.60;1.30;;;;;;;13.09;72.81;101525.41;5068461;28;20040;-71
2022/07/18 04:51:46;;;;;;;6.70;0.93;;;;;;;13.19;72.42;101527.50;5069557;28;20044;-70
2022/07/18 04:54:50;;;;;;;2.80;1.00;;;;;;;13.40;71.41;101524.81;5069567;28;20102;-67
2022/07/18 04:57:54;;;;;;;5.72;1.42;;;;;;;13.24;71.75;101524.66;5068575;28;20585;-70
2022/07/18 05:00:57;;;;;;;3.53;0.90;;;;;;;13.11;72.89;101528.78;5068837;28;20043;-71
2022/07/18 05:04:00;;;;;;;4.05;1.00;;;;;;;13.38;71.31;101526.69;5068742;28;20440;-67
2022/07/18 05:07:04;;;;;;;3.67;1.05;;;;;;;13.60;69.47;101524.72;5068823;28;20059;-67
2022/07/18 05:10:09;;;;;;;4.65;1.23;;;;;;;13.85;67.59;101520.88;5069154;28;20158;-67
2022/07/18 05:13:13;;;;;;;2.25;1.23;;;;;;;13.93;67.53;101518.69;5068795;28;20052;-67
2022/07/18 05:16:16;;;;;;;2.80;0.85;;;;;;;14.05;67.16;101527.75;5068837;28;20048;-67
2022/07/18 05:19:19;;;;;;;2.30;0.60;;;;;;;14.18;66.80;101519.16;5068447;28;20067;-67
2022/07/18 05:22:23;;;;;;;4.22;1.23;;;;;;;14.34;65.91;101513.09;5068733;28;20059;-67
2022/07/18 05:25:26;;;;;;;5.60;0.88;;;;;;;14.37;65.71;101515.56;5055906;28;20039;-67
2022/07/18 05:28:29;;;;;;;7.05;1.30;;;;;;;14.45;65.55;101510.72;5068323;28;20051;-67
2022/07/18 05:31:32;;;;;;;5.93;1.20;;;;;;;14.51;65.34;101513.06;5068777;28;20090;-67
2022/07/18 05:34:36;;;;;;;2.80;0.70;;;;;;;14.42;65.16;101518.78;5068835;28;20087;-67
2022/07/18 05:37:40;;;;;;;6.75;1.13;;;;;;;14.47;65.32;101519.41;5068258;28;20067;-67
2022/07/18 05:40:43;;;;;;;6.93;1.20;;;;;;;14.58;65.42;101514.47;5067807;28;20098;-67
2022/07/18 05:43:47;;;;;;;6.38;1.33;;;;;;;14.75;65.35;101512.72;5068418;28;20043;-67
2022/07/18 05:46:50;;;;;;;3.85;1.02;;;;;;;14.83;65.17;101506.06;5068637;28;20134;-67
2022/07/18 05:49:53;;;;;;;5.85;0.90;;;;;;;15.04;63.58;101498.78;5068727;28;20055;-67
2022/07/18 05:52:57;;;;;;;7.47;1.30;;;;;;;15.13;63.37;101501.88;5068838;28;20098;-66
2022/07/18 05:56:00;;;;;;;5.30;1.08;;;;;;;15.29;63.34;101498.28;5067528;28;20050;-67
2022/07/18 05:59:04;;;;;;;5.63;1.08;;;;;;;15.42;62.58;101501.06;5068175;28;20094;-67
2022/07/18 06:02:07;;;;;;;8.77;1.55;;;;;;;15.48;62.59;101494.59;5068479;28;20047;-67
2022/07/18 06:05:11;;;;;;;10.02;0.85;;;;;;;15.53;62.21;101489.91;5068790;28;20070;-66
2022/07/18 06:08:14;;;;;;;6.10;1.40;;;;;;;15.64;62.23;101497.19;5069178;28;20099;-67
2022/07/18 06:11:17;;;;;;;6.15;1.42;;;;;;;15.74;61.78;101491.31;5067939;28;20587;-67
2022/07/18 06:14:21;;;;;;;6.97;1.00;;;;;;;15.86;61.76;101491.53;5068075;28;20058;-66
2022/07/18 06:17:24;;;;;;;6.32;1.52;;;;;;;15.98;61.63;101504.84;5067840;28;20056;-66
2022/07/18 06:20:28;;;;;;;5.32;1.60;;;;;;;16.11;61.35;101501.47;5067778;28;20417;-67
2022/07/18 06:23:31;;;;;;;7.97;2.03;;;;;;;16.09;61.15;101484.91;5067369;28;20120;-66
2022/07/18 06:26:34;;;;;;;5.55;0.85;;;;;;;16.14;61.49;101488.94;5048498;28;20048;-66
2022/07/18 06:29:37;;;;;;;8.18;1.10;;;;;;;16.20;61.51;101479.81;5048338;28;20064;-66
2022/07/18 06:32:41;;;;;;;5.15;1.00;;;;;;;16.35;61.20;101473.59;5047845;28;20052;-66
2022/07/18 06:35:46;;;;;;;8.20;1.27;;;;;;;16.50;60.60;101477.09;5047251;28;20044;-66
2022/07/18 06:38:52;;;;;;;14.75;1.77;;;;;;;16.70;60.27;101478.50;5055449;28;20526;-67
2022/07/18 06:41:56;;;;;;;11.05;1.40;;;;;;;16.67;60.74;101468.13;5055246;28;20094;-66
2022/07/18 06:45:03;;;;;;;9.85;1.55;;;;;;;16.72;60.75;101466.06;5058751;28;20048;-66
2022/07/18 06:48:06;;;;;;;11.75;2.20;;;;;;;16.91;60.26;101461.31;5071899;28;20039;-66
2022/07/18 06:51:10;;;;;;;10.45;2.08;;;;;;;17.05;59.46;101452.50;5071385;28;20058;-66
2022/07/18 06:54:13;;;;;;;6.72;1.33;;;;;;;17.18;58.64;101452.56;5071008;28;20047;-65
2022/07/18 06:57:18;;;;;;;8.25;1.50;;;;;;;17.28;58.47;101447.50;5071301;28;20109;-66
2022/07/18 07:00:22;;;;;;;7.07;1.55;;;;;;;17.41;57.62;101449.22;5071048;28;20463;-73
2022/07/18 07:03:25;;;;;;;5.47;2.05;;;;;;;17.59;56.99;101441.88;5071415;28;20051;-72
2022/07/18 07:06:28;;;;;;;5.68;1.13;;;;;;;17.72;56.08;101446.34;5071360;28;20043;-63
2022/07/18 07:09:32;;;;;;;4.57;0.88;;;;;;;17.82;54.67;101448.28;5051163;28;20044;-65
2022/07/18 07:12:43;;;;;;;5.22;1.00;;;;;;;17.98;52.61;101452.53;5050759;28;20043;-63
2022/07/18 07:15:46;;;;;;;4.32;1.75;;;;;;;18.16;52.28;101445.13;5050632;28;20104;-64
2022/07/18 07:18:50;;;;;;;5.97;0.80;;;;;;;18.28;49.68;101439.84;5051171;28;20194;-64
2022/07/18 07:21:53;;;;;;;3.90;1.13;;;;;;;18.47;48.50;101435.84;5066478;28;20456;-64
2022/07/18 07:24:56;;;;;;;3.47;0.85;;;;;;;18.57;47.76;101434.28;5069992;28;20035;-67
2022/07/18 07:28:00;;;;;;;23.02;2.70;;;;;;;18.77;49.54;101436.34;5071014;28;20051;-63
2022/07/18 07:31:03;;;;;;;3.35;1.00;;;;;;;18.93;48.06;101427.28;5071093;28;20602;-65
2022/07/18 07:34:06;;;;;;;4.72;1.40;;;;;;;18.99;51.38;101419.75;5070659;28;20055;-64
2022/07/18 07:37:10;;;;;;;4.20;0.90;;;;;;;19.13;47.19;101420.53;5069731;28;20043;-65
2022/07/18 07:40:14;;;;;;;5.55;1.60;;;;;;;19.20;46.95;101425.25;5070080;28;20079;-64
2022/07/18 07:43:18;;;;;;;5.93;1.13;;;;;;;19.24;46.97;101413.47;5057745;28;20043;-64
2022/07/18 07:46:21;;;;;;;5.13;1.30;;;;;;;19.37;46.10;101407.22;5058148;28;20110;-64
2022/07/18 07:49:25;;;;;;;4.18;1.23;;;;;;;19.42;46.49;101410.38;5067340;28;20521;-64
2022/07/18 07:52:28;;;;;;;3.83;0.90;;;;;;;19.60;45.56;101394.91;5058085;28;20051;-64
2022/07/18 07:55:31;;;;;;;4.07;1.20;;;;;;;19.65;45.53;101392.75;5069642;28;20070;-65
2022/07/18 07:58:35;;;;;;;4.47;1.10;;;;;;;19.71;45.61;101393.13;5069808;28;20129;-65
2022/07/18 08:01:38;;;;;;;8.48;1.77;;;;;;;19.99;44.57;101388.31;5070200;28;20052;-66
2022/07/18 08:04:42;;;;;;;5.15;1.00;;;;;;;20.18;43.16;101385.91;5069989;28;20047;-65
2022/07/18 08:07:46;;;;;;;5.63;1.02;;;;;;;20.24;42.09;101383.75;5069932;28;20140;-64
2022/07/18 08:10:49;;;;;;;5.50;1.52;;;;;;;20.29;43.25;101378.91;5069549;28;20094;-65
2022/07/18 08:13:54;;;;;;;6.53;1.40;;;;;;;20.27;43.67;101380.84;5069099;28;20078;-65
2022/07/18 08:16:57;;;;;;;3.00;1.25;;;;;;;20.33;43.05;101377.72;5069828;28;20135;-70
2022/07/18 08:20:01;;;;;;;8.10;1.20;;;;;;;20.43;43.62;101376.00;5044876;28;20052;-70
2022/07/18 08:23:06;;;;;;;2.70;1.00;;;;;;;20.51;42.97;101368.28;5049654;28;20142;-71
2022/07/18 08:26:10;;;;;;;4.80;1.17;;;;;;;20.57;42.98;101373.09;5049855;28;20052;-70
2022/07/18 08:29:13;;;;;;;8.57;1.17;;;;;;;20.71;42.50;101365.81;5057954;28;20122;-70
2022/07/18 08:32:17;;;;;;;5.82;1.55;;;;;;;20.98;41.78;101363.53;5053047;28;20043;-76
2022/07/18 08:35:21;;;;;;;5.72;1.50;;;;;;;21.07;41.24;101364.59;5048836;28;20100;-72
2022/07/18 08:38:24;;;;;;;3.22;1.08;;;;;;;21.09;41.35;101358.19;5049130;28;20089;-70
2022/07/18 08:41:28;;;;;;;4.65;1.10;;;;;;;21.26;40.63;101364.75;5049660;28;20051;-70
2022/07/18 08:44:32;;;;;;;5.55;1.20;;;;;;;21.57;40.98;101351.53;5048990;28;20091;-71
2022/07/18 08:47:35;;;;;;;3.97;1.08;;;;;;;21.47;41.11;101343.47;5064774;28;20043;-70
2022/07/18 08:50:45;;;;;;;5.13;1.40;;;;;;;21.76;41.17;101350.78;5056485;28;20063;-70
2022/07/18 08:53:51;;;;;;;5.45;1.38;;;;;;;21.83;40.72;101346.63;5068841;28;20178;-71
2022/07/18 08:56:55;;;;;;;6.00;0.90;;;;;;;22.01;41.42;101345.00;5068467;28;20039;-70
2022/07/18 08:59:58;;;;;;;7.05;1.15;;;;;;;22.20;39.63;101344.25;5068681;28;20417;-71
2022/07/18 09:03:03;;;;;;;5.35;1.08;;;;;;;22.30;39.78;101338.94;5068842;28;20043;-70
2022/07/18 09:06:13;;;;;;;4.38;1.02;;;;;;;22.52;39.53;101328.06;5068611;28;20044;-70
2022/07/18 09:09:17;;;;;;;5.47;1.42;;;;;;;22.41;40.09;101330.84;5069169;28;20066;-70
2022/07/18 09:12:21;;;;;;;6.72;1.77;;;;;;;22.76;38.86;101326.81;5069102;28;20507;-70
2022/07/18 09:15:24;;;;;;;11.80;1.83;;;;;;;22.96;37.59;101320.53;5067992;28;20191;-70
2022/07/18 09:18:29;;;;;;;3.67;1.58;;;;;;;22.87;38.20;101326.69;5055905;28;20110;-71
2022/07/18 09:21:35;;;;;;;5.93;0.98;;;;;;;23.33;37.43;101321.63;5068348;28;20133;-70
2022/07/18 09:24:56;;;;;;;8.73;1.45;;;;;;;23.18;37.63;101329.22;5068796;28;20078;-70
2022/07/18 09:27:59;;;;;;;4.28;1.45;;;;;;;23.42;36.75;101324.28;5056012;28;20520;-70
2022/07/18 09:31:17;;;;;;;3.65;1.15;;;;;;;23.89;35.15;101323.41;5067504;28;20093;-71
2022/07/18 09:34:35;;;;;;;6.60;1.25;;;;;;;23.81;35.08;101316.16;5056253;28;20523;-70
2022/07/18 09:37:39;;;;;;;4.45;0.73;;;;;;;23.99;34.51;101312.69;5068566;28;20056;-70
2022/07/18 09:40:50;;;;;;;6.18;1.30;;;;;;;23.86;34.22;101311.19;5068712;28;20047;-70
2022/07/18 09:43:53;;;;;;;5.60;1.33;;;;;;;23.98;34.79;101311.84;5068539;28;20047;-70
2022/07/18 09:47:04;;;;;;;5.03;1.15;;;;;;;24.33;34.04;101305.72;5068485;28;20087;-70
2022/07/18 09:50:20;;;;;;;4.35;1.23;;;;;;;24.27;33.96;101303.66;5068637;28;20130;-70
2022/07/18 09:53:26;;;;;;;6.00;1.40;;;;;;;24.16;34.09;101303.06;5068604;28;20047;-70
2022/07/18 09:56:33;;;;;;;7.20;1.13;;;;;;;24.89;30.55;101294.91;5056030;28;20098;-70
2022/07/18 09:59:37;;;;;;;4.03;1.20;;;;;;;24.80;30.70;101292.19;5068359;28;20127;-70
2022/07/18 10:02:41;;;;;;;6.82;1.15;;;;;;;24.68;29.95;101301.44;5068054;28;20174;-70
2022/07/18 10:05:47;;;;;;;3.83;1.13;;;;;;;24.66;29.43;101290.03;5067746;28;20044;-70
2022/07/18 10:08:55;;;;;;;4.05;0.98;;;;;;;24.55;30.15;101287.63;5067696;28;20124;-70
2022/07/18 10:11:59;;;;;;;4.60;0.95;;;;;;;24.94;29.69;101281.91;5067796;28;20103;-70
2022/07/18 10:15:03;;;;;;;3.25;0.90;;;;;;;25.16;28.83;101281.44;5047431;28;20579;-71
2022/07/18 10:18:09;;;;;;;3.30;0.93;;;;;;;24.94;28.46;101281.91;5049916;28;20048;-70
2022/07/18 10:21:12;;;;;;;4.72;0.98;;;;;;;25.12;29.03;101277.41;5054214;28;20098;-71
2022/07/18 10:24:20;;;;;;;2.65;0.80;;;;;;;25.04;29.41;101271.97;5072182;28;20047;-70
2022/07/18 10:27:24;;;;;;;8.38;1.60;;;;;;;25.68;28.90;101273.34;5071255;28;20036;-70
2022/07/18 10:30:34;;;;;;;5.20;1.13;;;;;;;26.09;28.81;101259.31;5071486;28;20055;-70
2022/07/18 10:33:37;;;;;;;4.07;0.90;;;;;;;26.66;28.38;101259.41;5071477;28;20046;-70
2022/07/18 10:37:06;;;;;;;3.97;0.98;;;;;;;26.47;27.42;101257.03;5070954;28;20044;-71
2022/07/18 10:40:29;;;;;;;5.95;1.00;;;;;;;25.85;28.46;101252.06;5071450;28;20114;-71
2022/07/18 10:43:38;;;;;;;4.03;1.10;;;;;;;25.79;29.31;101250.00;5070757;28;20181;-71
2022/07/18 10:47:10;;;;;;;4.50;1.00;;;;;;;25.67;29.25;101250.25;5070778;28;20579;-71
2022/07/18 10:50:13;;;;;;;3.28;1.08;;;;;;;26.12;29.71;101257.13;5058358;28;20039;-71
2022/07/18 10:53:16;;;;;;;5.35;1.20;;;;;;;26.57;29.04;101250.53;5071149;28;20042;-71
2022/07/18 10:56:48;;;;;;;4.35;0.98;;;;;;;26.43;28.20;101249.31;5070579;28;20047;-71
2022/07/18 11:00:00;;;;;;;6.20;1.30;;;;;;;26.11;28.67;101238.56;5071079;28;20067;-70
2022/07/18 11:03:07;;;;;;;3.70;0.93;;;;;;;26.26;29.52;101230.69;5059195;28;20106;-70
2022/07/18 11:06:10;;;;;;;6.28;1.23;;;;;;;26.54;28.19;101228.56;5071121;28;20050;-70
2022/07/18 11:09:43;;;;;;;4.03;0.80;;;;;;;26.60;28.04;101238.63;5070713;28;20059;-70
2022/07/18 11:12:46;;;;;;;8.63;1.27;;;;;;;26.33;27.99;101231.72;5070914;28;20046;-71
2022/07/18 11:16:11;;;;;;;4.97;1.00;;;;;;;26.20;27.65;101226.84;5071102;28;20054;-71
2022/07/18 11:19:13;;;;;;;3.60;1.20;;;;;;;26.81;27.27;101228.22;5070638;28;20527;-70
2022/07/18 11:22:20;;;;;;;6.90;1.30;;;;;;;27.22;25.66;101222.81;5070241;28;20079;-68
2022/07/18 11:25:26;;;;;;;2.97;1.20;;;;;;;26.65;27.43;101215.66;5070084;28;20650;-68
2022/07/18 11:28:30;;;;;;;9.35;1.05;;;;;;;26.57;29.11;101206.78;5069968;28;20410;-71
2022/07/18 11:31:44;;;;;;;6.97;1.10;;;;;;;27.00;27.56;101196.69;5070437;28;20070;-67
2022/07/18 11:34:51;;;;;;;3.70;1.00;;;;;;;27.45;28.46;101196.06;5069532;28;20117;-68
2022/07/18 11:37:55;;;;;;;6.97;1.65;;;;;;;27.99;28.08;101188.06;5069961;28;20047;-67
2022/07/18 11:40:58;;;;;;;5.15;1.23;;;;;;;27.33;27.20;101194.75;5070271;28;20047;-67
2022/07/18 11:44:02;;;;;;;7.57;1.40;;;;;;;27.09;27.46;101193.81;5070511;28;20050;-67
2022/07/18 11:47:10;;;;;;;2.97;1.10;;;;;;;27.78;27.53;101187.84;5070083;28;20364;-67
2022/07/18 11:50:14;;;;;;;2.85;1.40;;;;;;;27.87;27.22;101175.22;5058051;28;20047;-71
2022/07/18 11:53:18;;;;;;;5.88;1.52;;;;;;;28.45;26.13;101182.69;5057287;28;20071;-69
2022/07/18 11:56:48;;;;;;;7.18;1.27;;;;;;;27.78;27.01;101177.94;5064655;28;20410;-71
2022/07/18 11:59:51;;;;;;;3.45;1.08;;;;;;;27.38;28.52;101178.97;5063393;28;20062;-69
2022/07/18 12:02:57;;;;;;;8.48;1.63;;;;;;;27.66;28.17;101176.63;5061843;28;20043;-74
2022/07/18 12:06:11;;;;;;;5.30;1.15;;;;;;;28.33;24.70;101172.50;5067996;28;20030;-71
2022/07/18 12:09:34;;;;;;;3.60;0.95;;;;;;;28.02;26.25;101171.56;5050359;28;20048;-70
2022/07/18 12:12:37;;;;;;;1.90;0.77;;;;;;;28.11;24.56;101163.44;5050132;28;20049;-69
2022/07/18 12:15:41;;;;;;;4.55;1.23;;;;;;;27.78;25.82;101160.97;5049726;28;20052;-69
2022/07/18 12:18:52;;;;;;;4.20;1.27;;;;;;;28.14;25.46;101149.63;5050312;28;20044;-69
2022/07/18 12:21:56;;;;;;;5.95;1.10;;;;;;;28.55;25.79;101157.38;5057192;28;20195;-71
2022/07/18 12:25:00;;;;;;;4.65;1.45;;;;;;;28.34;25.72;101150.84;5068720;28;20055;-79
2022/07/18 12:28:18;;;;;;;3.47;1.15;;;;;;;28.72;24.61;101143.59;5063788;28;20110;-72
2022/07/18 12:31:44;;;;;;;10.10;1.30;;;;;;;28.15;25.12;101146.78;5056790;28;20048;-74
2022/07/18 12:35:01;;;;;;;6.18;0.95;;;;;;;29.27;24.56;101144.19;5047555;28;20079;-72
2022/07/18 12:38:09;;;;;;;7.97;1.00;;;;;;;30.19;23.12;101131.91;5125014;22;20559;-72
2022/07/18 12:41:13;;;;;;;2.25;1.00;;;;;;;29.52;25.27;101135.78;5059791;28;20060;-70
2022/07/18 12:44:16;;;;;;;3.90;1.20;;;;;;;29.39;25.34;101137.28;5057557;28;20118;-68
2022/07/18 12:47:19;;;;;;;4.32;1.10;;;;;;;29.18;25.47;101134.53;5057675;28;20047;-71
2022/07/18 12:50:22;;;;;;;3.42;1.02;;;;;;;29.06;25.45;101136.00;5052046;28;20098;-70
2022/07/18 12:53:28;;;;;;;3.05;1.08;;;;;;;28.84;26.56;101138.56;5055637;28;20532;-70
2022/07/18 12:56:31;;;;;;;3.25;0.95;;;;;;;28.45;26.70;101128.06;5048582;28;20195;-69
2022/07/18 12:59:34;;;;;;;3.88;1.00;;;;;;;28.66;25.87;101130.06;5049605;28;20132;-70
2022/07/18 13:02:38;;;;;;;5.53;0.95;;;;;;;28.88;25.05;101115.69;5049813;28;20106;-68
2022/07/18 13:05:42;;;;;;;4.00;1.50;;;;;;;29.68;24.74;101097.84;5052259;28;20430;-72
2022/07/18 13:08:45;;;;;;;4.28;1.27;;;;;;;30.35;23.40;101093.91;5056337;28;20120;-68
2022/07/18 13:11:48;;;;;;;6.30;1.65;;;;;;;30.72;22.63;101102.63;5055439;28;20044;-68
2022/07/18 13:14:52;;;;;;;3.60;1.67;;;;;;;31.03;22.41;101102.22;5060090;28;20461;-67
2022/07/18 13:17:56;;;;;;;7.97;1.20;;;;;;;30.92;21.09;101100.06;5059952;28;20199;-73
2022/07/18 13:21:01;;;;;;;2.95;1.00;;;;;;;31.10;21.82;101091.44;5057416;28;20079;-68
2022/07/18 13:24:05;;;;;;;5.95;1.00;;;;;;;31.71;21.54;101097.66;5057342;28;20044;-74
2022/07/18 13:27:08;;;;;;;3.67;1.10;;;;;;;32.01;20.70;101083.78;5045986;28;20509;-79
2022/07/18 13:30:12;;;;;;;7.53;1.52;;;;;;;32.16;20.25;101084.44;5051962;28;20098;-72
2022/07/18 13:33:15;;;;;;;4.70;1.30;;;;;;;32.35;20.13;101084.59;5061493;28;20143;-73
2022/07/18 13:36:18;;;;;;;2.50;1.10;;;;;;;32.59;19.59;101083.97;5055767;28;20107;-75
2022/07/18 13:39:22;;;;;;;3.97;0.95;;;;;;;32.82;19.83;101071.81;5039770;28;20107;-74
2022/07/18 13:42:25;;;;;;;4.78;1.50;;;;;;;32.89;19.69;101069.91;5034010;28;20207;-73
2022/07/18 13:45:31;;;;;;;6.30;1.10;;;;;;;33.16;18.53;101069.84;5034747;28;20076;-73
2022/07/18 13:48:34;;;;;;;4.30;1.30;;;;;;;33.51;18.25;101062.16;5034549;28;20048;-74
2022/07/18 13:51:38;;;;;;;4.28;1.25;;;;;;;33.67;19.51;101058.09;5030052;28;20044;-76
2022/07/18 13:54:42;;;;;;;2.65;0.90;;;;;;;33.82;18.82;101058.56;5033127;28;20126;-74
2022/07/18 13:57:46;;;;;;;9.75;1.40;;;;;;;34.02;18.48;101045.72;5033040;28;20044;-73
2022/07/18 14:00:50;;;;;;;3.63;1.15;;;;;;;34.42;18.71;101044.47;5033115;28;20092;-75
2022/07/18 14:03:53;;;;;;;6.32;1.15;;;;;;;35.28;17.59;101040.75;5027008;28;20563;-74
2022/07/18 14:06:58;;;;;;;7.00;1.30;;;;;;;35.72;16.85;101037.81;5044648;28;20398;-75
2022/07/18 14:10:04;;;;;;;2.53;0.98;;;;;;;36.12;17.08;101040.69;5041563;28;20079;-74
2022/07/18 14:13:07;;;;;;;6.72;1.30;;;;;;;36.85;16.21;101039.28;5035701;28;20099;-74
2022/07/18 14:16:13;;;;;;;6.38;1.45;;;;;;;38.64;15.47;101033.25;5041209;28;20052;-73
2022/07/18 14:19:19;;;;;;;3.97;1.73;;;;;;;40.43;13.34;101033.78;5037460;28;20691;-75
2022/07/18 14:22:27;;;;;;;5.63;1.48;;;;;;;41.45;11.50;101026.97;5034419;28;20068;-74
2022/07/18 14:25:33;;;;;;;6.43;1.33;;;;;;;42.29;11.23;101019.19;5034162;28;20060;-75
2022/07/18 14:28:37;;;;;;;7.18;1.60;;;;;;;41.29;11.70;101029.69;5040507;28;20061;-75
2022/07/18 14:31:40;;;;;;;3.45;1.50;;;;;;;42.04;11.29;101018.13;5037652;28;20580;-75